sensor_id;sensor_type;location;lat;lon;timestamp;P1;durP1;ratioP1;P2;durP2;ratioP2
9248;SDS011;4660;41.768;26.198;2023-10-08T00:01:21;10.07;;;4.93;;
9248;SDS011;4660;41.768;26.198;2023-10-08T00:03:46;10.57;;;5.23;;
9248;SDS011;4660;41.768;26.198;2023-10-08T00:06:23;9.50;;;4.87;;
9248;SDS011;4660;41.768;26.198;2023-10-08T00:08:49;8.30;;;5.23;;
9248;SDS011;4660;41.768;26.198;2023-10-08T00:11:15;13.87;;;5.70;;
9248;SDS011;4660;41.768;26.198;2023-10-08T00:13:41;9.13;;;5.60;;
9248;SDS011;4660;41.768;26.198;2023-10-08T00:16:08;8.23;;;6.50;;
9248;SDS011;4660;41.768;26.198;2023-10-08T00:18:40;10.97;;;5.87;;
9248;SDS011;4660;41.768;26.198;2023-10-08T00:21:07;12.70;;;6.83;;
9248;SDS011;4660;41.768;26.198;2023-10-08T00:23:36;11.50;;;6.93;;
9248;SDS011;4660;41.768;26.198;2023-10-08T00:26:10;11.03;;;6.43;;
9248;SDS011;4660;41.768;26.198;2023-10-08T00:28:36;12.47;;;6.63;;
9248;SDS011;4660;41.768;26.198;2023-10-08T00:31:02;12.07;;;6.70;;
9248;SDS011;4660;41.768;26.198;2023-10-08T00:33:38;12.83;;;7.00;;
9248;SDS011;4660;41.768;26.198;2023-10-08T00:36:09;14.00;;;6.33;;
9248;SDS011;4660;41.768;26.198;2023-10-08T00:38:48;10.57;;;6.20;;
9248;SDS011;4660;41.768;26.198;2023-10-08T00:41:19;7.80;;;5.50;;
9248;SDS011;4660;41.768;26.198;2023-10-08T00:43:48;8.63;;;6.07;;
9248;SDS011;4660;41.768;26.198;2023-10-08T00:46:15;10.33;;;6.70;;
9248;SDS011;4660;41.768;26.198;2023-10-08T00:48:56;7.73;;;5.47;;
9248;SDS011;4660;41.768;26.198;2023-10-08T00:51:27;12.20;;;5.83;;
9248;SDS011;4660;41.768;26.198;2023-10-08T00:56:31;11.67;;;5.67;;
9248;SDS011;4660;41.768;26.198;2023-10-08T00:59:16;10.90;;;6.57;;
9248;SDS011;4660;41.768;26.198;2023-10-08T01:01:45;11.73;;;7.60;;
9248;SDS011;4660;41.768;26.198;2023-10-08T01:04:20;14.90;;;9.23;;
9248;SDS011;4660;41.768;26.198;2023-10-08T01:06:54;12.63;;;7.73;;
9248;SDS011;4660;41.768;26.198;2023-10-08T01:09:24;17.53;;;7.93;;
9248;SDS011;4660;41.768;26.198;2023-10-08T01:12:12;9.73;;;6.33;;
9248;SDS011;4660;41.768;26.198;2023-10-08T01:14:46;11.57;;;6.83;;
9248;SDS011;4660;41.768;26.198;2023-10-08T01:17:14;8.23;;;6.50;;
9248;SDS011;4660;41.768;26.198;2023-10-08T01:19:42;11.03;;;7.30;;
9248;SDS011;4660;41.768;26.198;2023-10-08T01:22:10;13.17;;;8.70;;
9248;SDS011;4660;41.768;26.198;2023-10-08T01:24:53;11.40;;;7.60;;
9248;SDS011;4660;41.768;26.198;2023-10-08T01:27:19;13.23;;;7.13;;
9248;SDS011;4660;41.768;26.198;2023-10-08T01:29:47;13.17;;;7.33;;
9248;SDS011;4660;41.768;26.198;2023-10-08T01:32:15;8.63;;;6.03;;
9248;SDS011;4660;41.768;26.198;2023-10-08T01:34:42;13.97;;;6.93;;
9248;SDS011;4660;41.768;26.198;2023-10-08T01:37:19;10.27;;;6.57;;
9248;SDS011;4660;41.768;26.198;2023-10-08T01:39:47;13.20;;;7.03;;
9248;SDS011;4660;41.768;26.198;2023-10-08T01:42:15;11.10;;;6.90;;
9248;SDS011;4660;41.768;26.198;2023-10-08T01:44:46;12.43;;;7.27;;
9248;SDS011;4660;41.768;26.198;2023-10-08T01:47:14;14.60;;;6.67;;
9248;SDS011;4660;41.768;26.198;2023-10-08T01:49:41;10.47;;;6.17;;
9248;SDS011;4660;41.768;26.198;2023-10-08T01:52:11;5.97;;;5.20;;
9248;SDS011;4660;41.768;26.198;2023-10-08T01:54:44;10.90;;;5.97;;
9248;SDS011;4660;41.768;26.198;2023-10-08T01:57:09;7.77;;;5.77;;
9248;SDS011;4660;41.768;26.198;2023-10-08T01:59:37;8.87;;;5.37;;
9248;SDS011;4660;41.768;26.198;2023-10-08T02:02:04;12.20;;;6.93;;
9248;SDS011;4660;41.768;26.198;2023-10-08T02:04:31;10.03;;;6.33;;
9248;SDS011;4660;41.768;26.198;2023-10-08T02:07:03;10.83;;;5.90;;
9248;SDS011;4660;41.768;26.198;2023-10-08T02:09:29;11.43;;;6.93;;
9248;SDS011;4660;41.768;26.198;2023-10-08T02:11:55;11.30;;;6.50;;
9248;SDS011;4660;41.768;26.198;2023-10-08T02:14:22;10.40;;;6.37;;
9248;SDS011;4660;41.768;26.198;2023-10-08T02:16:48;18.57;;;7.10;;
9248;SDS011;4660;41.768;26.198;2023-10-08T02:19:20;10.50;;;6.00;;
9248;SDS011;4660;41.768;26.198;2023-10-08T02:21:52;9.00;;;5.90;;
9248;SDS011;4660;41.768;26.198;2023-10-08T02:24:19;9.90;;;5.83;;
9248;SDS011;4660;41.768;26.198;2023-10-08T02:26:46;9.40;;;5.47;;
9248;SDS011;4660;41.768;26.198;2023-10-08T02:29:12;14.77;;;6.53;;
9248;SDS011;4660;41.768;26.198;2023-10-08T02:31:38;11.77;;;6.33;;
9248;SDS011;4660;41.768;26.198;2023-10-08T02:34:08;10.90;;;6.73;;
9248;SDS011;4660;41.768;26.198;2023-10-08T02:36:34;13.07;;;6.37;;
9248;SDS011;4660;41.768;26.198;2023-10-08T02:39:03;10.80;;;6.20;;
9248;SDS011;4660;41.768;26.198;2023-10-08T02:41:31;16.23;;;6.67;;
9248;SDS011;4660;41.768;26.198;2023-10-08T02:43:57;8.73;;;5.93;;
9248;SDS011;4660;41.768;26.198;2023-10-08T02:46:24;9.60;;;6.40;;
9248;SDS011;4660;41.768;26.198;2023-10-08T02:48:52;8.70;;;6.17;;
9248;SDS011;4660;41.768;26.198;2023-10-08T02:51:18;11.53;;;6.43;;
9248;SDS011;4660;41.768;26.198;2023-10-08T02:53:46;11.13;;;6.00;;
9248;SDS011;4660;41.768;26.198;2023-10-08T02:56:12;9.57;;;5.40;;
9248;SDS011;4660;41.768;26.198;2023-10-08T02:58:41;7.17;;;5.43;;
9248;SDS011;4660;41.768;26.198;2023-10-08T03:01:09;7.80;;;6.17;;
9248;SDS011;4660;41.768;26.198;2023-10-08T03:03:41;11.97;;;6.40;;
9248;SDS011;4660;41.768;26.198;2023-10-08T03:06:07;10.53;;;6.47;;
9248;SDS011;4660;41.768;26.198;2023-10-08T03:08:40;8.70;;;5.40;;
9248;SDS011;4660;41.768;26.198;2023-10-08T03:11:09;8.90;;;5.60;;
9248;SDS011;4660;41.768;26.198;2023-10-08T03:13:45;8.60;;;5.60;;
9248;SDS011;4660;41.768;26.198;2023-10-08T03:16:18;9.00;;;5.50;;
9248;SDS011;4660;41.768;26.198;2023-10-08T03:18:52;7.00;;;5.63;;
9248;SDS011;4660;41.768;26.198;2023-10-08T03:21:20;9.40;;;5.80;;
9248;SDS011;4660;41.768;26.198;2023-10-08T03:23:48;9.17;;;5.87;;
9248;SDS011;4660;41.768;26.198;2023-10-08T03:26:15;7.60;;;5.67;;
9248;SDS011;4660;41.768;26.198;2023-10-08T03:28:57;9.03;;;6.63;;
9248;SDS011;4660;41.768;26.198;2023-10-08T03:31:23;11.20;;;6.10;;
9248;SDS011;4660;41.768;26.198;2023-10-08T03:34:10;11.20;;;6.70;;
9248;SDS011;4660;41.768;26.198;2023-10-08T03:36:40;10.00;;;5.70;;
9248;SDS011;4660;41.768;26.198;2023-10-08T03:39:15;9.30;;;6.20;;
9248;SDS011;4660;41.768;26.198;2023-10-08T03:41:45;10.37;;;6.40;;
9248;SDS011;4660;41.768;26.198;2023-10-08T03:44:23;7.97;;;5.73;;
9248;SDS011;4660;41.768;26.198;2023-10-08T03:46:49;9.90;;;6.17;;
9248;SDS011;4660;41.768;26.198;2023-10-08T03:49:17;13.07;;;7.60;;
9248;SDS011;4660;41.768;26.198;2023-10-08T03:51:46;12.60;;;6.30;;
9248;SDS011;4660;41.768;26.198;2023-10-08T03:54:13;14.40;;;7.40;;
9248;SDS011;4660;41.768;26.198;2023-10-08T03:56:39;12.37;;;6.97;;
9248;SDS011;4660;41.768;26.198;2023-10-08T03:59:06;10.13;;;6.67;;
9248;SDS011;4660;41.768;26.198;2023-10-08T04:01:41;11.43;;;6.83;;
9248;SDS011;4660;41.768;26.198;2023-10-08T04:04:07;11.80;;;7.03;;
9248;SDS011;4660;41.768;26.198;2023-10-08T04:06:39;9.67;;;6.70;;
9248;SDS011;4660;41.768;26.198;2023-10-08T04:09:16;10.43;;;6.50;;
9248;SDS011;4660;41.768;26.198;2023-10-08T04:11:51;9.37;;;6.17;;
9248;SDS011;4660;41.768;26.198;2023-10-08T04:14:18;10.50;;;6.43;;
9248;SDS011;4660;41.768;26.198;2023-10-08T04:16:44;9.63;;;6.20;;
9248;SDS011;4660;41.768;26.198;2023-10-08T04:19:10;9.40;;;6.27;;
9248;SDS011;4660;41.768;26.198;2023-10-08T04:21:37;11.23;;;6.90;;
9248;SDS011;4660;41.768;26.198;2023-10-08T04:24:06;14.07;;;6.67;;
9248;SDS011;4660;41.768;26.198;2023-10-08T04:26:34;10.43;;;7.03;;
9248;SDS011;4660;41.768;26.198;2023-10-08T04:29:01;9.73;;;6.83;;
9248;SDS011;4660;41.768;26.198;2023-10-08T04:31:32;8.20;;;6.20;;
9248;SDS011;4660;41.768;26.198;2023-10-08T04:34:05;7.47;;;6.23;;
9248;SDS011;4660;41.768;26.198;2023-10-08T04:36:43;10.37;;;6.83;;
9248;SDS011;4660;41.768;26.198;2023-10-08T04:39:12;19.70;;;12.13;;
9248;SDS011;4660;41.768;26.198;2023-10-08T04:41:46;15.77;;;9.87;;
9248;SDS011;4660;41.768;26.198;2023-10-08T04:44:13;27.93;;;15.93;;
9248;SDS011;4660;41.768;26.198;2023-10-08T04:46:43;12.10;;;6.77;;
9248;SDS011;4660;41.768;26.198;2023-10-08T04:49:16;19.27;;;11.17;;
9248;SDS011;4660;41.768;26.198;2023-10-08T04:52:06;17.10;;;8.20;;
9248;SDS011;4660;41.768;26.198;2023-10-08T04:54:53;19.80;;;13.17;;
9248;SDS011;4660;41.768;26.198;2023-10-08T04:57:20;21.07;;;15.10;;
9248;SDS011;4660;41.768;26.198;2023-10-08T04:59:51;13.37;;;9.27;;
9248;SDS011;4660;41.768;26.198;2023-10-08T05:02:17;13.33;;;7.90;;
9248;SDS011;4660;41.768;26.198;2023-10-08T05:05:14;18.97;;;12.70;;
9248;SDS011;4660;41.768;26.198;2023-10-08T05:07:42;17.80;;;9.90;;
9248;SDS011;4660;41.768;26.198;2023-10-08T05:10:11;16.63;;;10.93;;
9248;SDS011;4660;41.768;26.198;2023-10-08T05:12:49;13.37;;;8.10;;
9248;SDS011;4660;41.768;26.198;2023-10-08T05:15:30;12.87;;;8.53;;
9248;SDS011;4660;41.768;26.198;2023-10-08T05:18:01;10.37;;;6.80;;
9248;SDS011;4660;41.768;26.198;2023-10-08T05:20:51;10.93;;;5.70;;
9248;SDS011;4660;41.768;26.198;2023-10-08T05:23:17;10.00;;;6.73;;
9248;SDS011;4660;41.768;26.198;2023-10-08T05:25:52;14.47;;;6.80;;
9248;SDS011;4660;41.768;26.198;2023-10-08T05:28:31;12.03;;;7.20;;
9248;SDS011;4660;41.768;26.198;2023-10-08T05:31:07;11.20;;;7.20;;
9248;SDS011;4660;41.768;26.198;2023-10-08T05:33:41;16.57;;;9.57;;
9248;SDS011;4660;41.768;26.198;2023-10-08T05:36:26;12.57;;;7.00;;
9248;SDS011;4660;41.768;26.198;2023-10-08T05:39:15;11.43;;;7.10;;
9248;SDS011;4660;41.768;26.198;2023-10-08T05:41:55;10.70;;;6.50;;
9248;SDS011;4660;41.768;26.198;2023-10-08T05:44:39;9.63;;;6.97;;
9248;SDS011;4660;41.768;26.198;2023-10-08T05:47:08;9.57;;;7.00;;
9248;SDS011;4660;41.768;26.198;2023-10-08T05:50:12;10.93;;;7.17;;
9248;SDS011;4660;41.768;26.198;2023-10-08T05:52:43;12.10;;;6.77;;
9248;SDS011;4660;41.768;26.198;2023-10-08T05:55:22;10.53;;;7.53;;
9248;SDS011;4660;41.768;26.198;2023-10-08T05:57:54;10.60;;;6.73;;
9248;SDS011;4660;41.768;26.198;2023-10-08T06:00:43;9.87;;;6.53;;
9248;SDS011;4660;41.768;26.198;2023-10-08T06:03:19;10.17;;;6.63;;
9248;SDS011;4660;41.768;26.198;2023-10-08T06:06:06;9.97;;;7.00;;
9248;SDS011;4660;41.768;26.198;2023-10-08T06:08:42;12.03;;;7.53;;
9248;SDS011;4660;41.768;26.198;2023-10-08T06:11:19;8.90;;;7.63;;
9248;SDS011;4660;41.768;26.198;2023-10-08T06:14:04;13.47;;;6.90;;
9248;SDS011;4660;41.768;26.198;2023-10-08T06:16:39;9.57;;;6.73;;
9248;SDS011;4660;41.768;26.198;2023-10-08T06:19:12;9.43;;;6.07;;
9248;SDS011;4660;41.768;26.198;2023-10-08T06:21:39;11.10;;;6.53;;
9248;SDS011;4660;41.768;26.198;2023-10-08T06:24:06;11.03;;;6.57;;
9248;SDS011;4660;41.768;26.198;2023-10-08T06:26:38;10.77;;;6.70;;
9248;SDS011;4660;41.768;26.198;2023-10-08T06:29:10;10.33;;;6.00;;
9248;SDS011;4660;41.768;26.198;2023-10-08T06:31:58;13.00;;;7.17;;
9248;SDS011;4660;41.768;26.198;2023-10-08T06:34:30;13.97;;;6.80;;
9248;SDS011;4660;41.768;26.198;2023-10-08T06:36:57;10.50;;;5.83;;
9248;SDS011;4660;41.768;26.198;2023-10-08T06:39:24;15.63;;;6.47;;
9248;SDS011;4660;41.768;26.198;2023-10-08T06:41:58;12.33;;;6.50;;
9248;SDS011;4660;41.768;26.198;2023-10-08T06:44:25;10.17;;;6.10;;
9248;SDS011;4660;41.768;26.198;2023-10-08T06:46:51;9.10;;;5.87;;
9248;SDS011;4660;41.768;26.198;2023-10-08T06:49:21;10.30;;;6.63;;
9248;SDS011;4660;41.768;26.198;2023-10-08T06:51:50;8.10;;;6.23;;
9248;SDS011;4660;41.768;26.198;2023-10-08T06:54:17;7.67;;;6.30;;
9248;SDS011;4660;41.768;26.198;2023-10-08T06:56:43;8.87;;;6.13;;
9248;SDS011;4660;41.768;26.198;2023-10-08T06:59:17;10.40;;;6.07;;
9248;SDS011;4660;41.768;26.198;2023-10-08T07:01:43;9.40;;;6.47;;
9248;SDS011;4660;41.768;26.198;2023-10-08T07:04:13;10.53;;;6.00;;
9248;SDS011;4660;41.768;26.198;2023-10-08T07:06:39;10.17;;;6.20;;
9248;SDS011;4660;41.768;26.198;2023-10-08T07:09:06;8.37;;;6.07;;
9248;SDS011;4660;41.768;26.198;2023-10-08T07:11:47;13.90;;;6.33;;
9248;SDS011;4660;41.768;26.198;2023-10-08T07:14:20;8.77;;;5.83;;
9248;SDS011;4660;41.768;26.198;2023-10-08T07:16:48;12.17;;;6.20;;
9248;SDS011;4660;41.768;26.198;2023-10-08T07:19:17;10.90;;;6.60;;
9248;SDS011;4660;41.768;26.198;2023-10-08T07:21:48;13.50;;;5.80;;
9248;SDS011;4660;41.768;26.198;2023-10-08T07:24:24;10.23;;;6.00;;
9248;SDS011;4660;41.768;26.198;2023-10-08T07:26:49;7.23;;;5.63;;
9248;SDS011;4660;41.768;26.198;2023-10-08T07:29:17;11.57;;;5.97;;
9248;SDS011;4660;41.768;26.198;2023-10-08T07:31:43;7.30;;;4.70;;
9248;SDS011;4660;41.768;26.198;2023-10-08T07:34:17;10.27;;;5.13;;
9248;SDS011;4660;41.768;26.198;2023-10-08T07:36:51;11.73;;;5.50;;
9248;SDS011;4660;41.768;26.198;2023-10-08T07:39:18;9.67;;;4.90;;
9248;SDS011;4660;41.768;26.198;2023-10-08T07:41:57;8.23;;;4.85;;
9248;SDS011;4660;41.768;26.198;2023-10-08T07:44:25;9.82;;;4.63;;
9248;SDS011;4660;41.768;26.198;2023-10-08T07:46:55;9.30;;;4.68;;
9248;SDS011;4660;41.768;26.198;2023-10-08T07:49:21;6.78;;;4.70;;
9248;SDS011;4660;41.768;26.198;2023-10-08T07:51:51;10.70;;;4.80;;
9248;SDS011;4660;41.768;26.198;2023-10-08T07:54:26;9.45;;;5.13;;
9248;SDS011;4660;41.768;26.198;2023-10-08T07:56:55;7.90;;;5.10;;
9248;SDS011;4660;41.768;26.198;2023-10-08T07:59:56;8.93;;;5.53;;
9248;SDS011;4660;41.768;26.198;2023-10-08T08:02:42;11.32;;;5.00;;
9248;SDS011;4660;41.768;26.198;2023-10-08T08:05:07;8.73;;;4.95;;
9248;SDS011;4660;41.768;26.198;2023-10-08T08:07:33;9.35;;;4.32;;
9248;SDS011;4660;41.768;26.198;2023-10-08T08:09:58;7.30;;;4.40;;
9248;SDS011;4660;41.768;26.198;2023-10-08T08:12:24;6.60;;;4.43;;
9248;SDS011;4660;41.768;26.198;2023-10-08T08:14:51;9.07;;;4.72;;
9248;SDS011;4660;41.768;26.198;2023-10-08T08:17:17;8.90;;;4.50;;
9248;SDS011;4660;41.768;26.198;2023-10-08T08:19:45;6.38;;;4.38;;
9248;SDS011;4660;41.768;26.198;2023-10-08T08:22:12;6.88;;;4.53;;
9248;SDS011;4660;41.768;26.198;2023-10-08T08:24:55;11.05;;;5.20;;
9248;SDS011;4660;41.768;26.198;2023-10-08T08:27:28;5.78;;;3.85;;
9248;SDS011;4660;41.768;26.198;2023-10-08T08:29:57;6.22;;;4.60;;
9248;SDS011;4660;41.768;26.198;2023-10-08T08:32:38;8.52;;;4.15;;
9248;SDS011;4660;41.768;26.198;2023-10-08T08:35:09;9.68;;;4.22;;
9248;SDS011;4660;41.768;26.198;2023-10-08T08:37:36;8.25;;;3.88;;
9248;SDS011;4660;41.768;26.198;2023-10-08T08:40:06;6.70;;;4.28;;
9248;SDS011;4660;41.768;26.198;2023-10-08T08:42:48;6.43;;;3.58;;
9248;SDS011;4660;41.768;26.198;2023-10-08T08:45:21;6.18;;;3.92;;
9248;SDS011;4660;41.768;26.198;2023-10-08T08:47:51;8.13;;;4.00;;
9248;SDS011;4660;41.768;26.198;2023-10-08T08:50:18;6.53;;;4.38;;
9248;SDS011;4660;41.768;26.198;2023-10-08T08:52:44;15.43;;;4.22;;
9248;SDS011;4660;41.768;26.198;2023-10-08T08:55:11;6.93;;;4.00;;
9248;SDS011;4660;41.768;26.198;2023-10-08T08:57:49;8.02;;;3.92;;
9248;SDS011;4660;41.768;26.198;2023-10-08T09:00:18;7.05;;;4.13;;
9248;SDS011;4660;41.768;26.198;2023-10-08T09:02:45;7.00;;;4.45;;
9248;SDS011;4660;41.768;26.198;2023-10-08T09:05:12;5.55;;;3.80;;
9248;SDS011;4660;41.768;26.198;2023-10-08T09:07:52;7.63;;;4.20;;
9248;SDS011;4660;41.768;26.198;2023-10-08T09:10:18;7.65;;;3.95;;
9248;SDS011;4660;41.768;26.198;2023-10-08T09:12:43;8.43;;;3.80;;
9248;SDS011;4660;41.768;26.198;2023-10-08T09:15:10;7.32;;;4.00;;
9248;SDS011;4660;41.768;26.198;2023-10-08T09:17:36;8.00;;;4.18;;
9248;SDS011;4660;41.768;26.198;2023-10-08T09:20:05;8.45;;;4.35;;
9248;SDS011;4660;41.768;26.198;2023-10-08T09:22:32;6.40;;;4.25;;
9248;SDS011;4660;41.768;26.198;2023-10-08T09:24:57;5.78;;;3.83;;
9248;SDS011;4660;41.768;26.198;2023-10-08T09:27:25;10.25;;;4.05;;
9248;SDS011;4660;41.768;26.198;2023-10-08T09:29:51;8.73;;;4.15;;
9248;SDS011;4660;41.768;26.198;2023-10-08T09:32:17;7.70;;;3.75;;
9248;SDS011;4660;41.768;26.198;2023-10-08T09:34:48;7.75;;;4.35;;
9248;SDS011;4660;41.768;26.198;2023-10-08T09:37:16;4.85;;;3.60;;
9248;SDS011;4660;41.768;26.198;2023-10-08T09:39:42;5.90;;;3.63;;
9248;SDS011;4660;41.768;26.198;2023-10-08T09:42:10;5.05;;;3.50;;
9248;SDS011;4660;41.768;26.198;2023-10-08T09:44:37;9.18;;;3.80;;
9248;SDS011;4660;41.768;26.198;2023-10-08T09:47:06;6.50;;;3.75;;
9248;SDS011;4660;41.768;26.198;2023-10-08T09:49:40;6.72;;;4.00;;
9248;SDS011;4660;41.768;26.198;2023-10-08T09:52:16;6.38;;;3.90;;
9248;SDS011;4660;41.768;26.198;2023-10-08T09:54:48;4.43;;;3.13;;
9248;SDS011;4660;41.768;26.198;2023-10-08T09:57:21;10.93;;;3.75;;
9248;SDS011;4660;41.768;26.198;2023-10-08T09:59:49;4.95;;;3.42;;
9248;SDS011;4660;41.768;26.198;2023-10-08T10:02:16;4.45;;;3.63;;
9248;SDS011;4660;41.768;26.198;2023-10-08T10:04:43;7.05;;;3.60;;
9248;SDS011;4660;41.768;26.198;2023-10-08T10:07:10;6.75;;;3.67;;
9248;SDS011;4660;41.768;26.198;2023-10-08T10:09:45;5.38;;;3.35;;
9248;SDS011;4660;41.768;26.198;2023-10-08T10:12:12;5.15;;;3.42;;
9248;SDS011;4660;41.768;26.198;2023-10-08T10:14:51;4.75;;;3.10;;
9248;SDS011;4660;41.768;26.198;2023-10-08T10:17:22;6.03;;;3.15;;
9248;SDS011;4660;41.768;26.198;2023-10-08T10:19:57;6.72;;;3.83;;
9248;SDS011;4660;41.768;26.198;2023-10-08T10:22:30;4.80;;;3.42;;
9248;SDS011;4660;41.768;26.198;2023-10-08T10:24:58;7.47;;;3.40;;
9248;SDS011;4660;41.768;26.198;2023-10-08T10:27:28;4.22;;;3.40;;
9248;SDS011;4660;41.768;26.198;2023-10-08T10:30:01;6.68;;;3.70;;
9248;SDS011;4660;41.768;26.198;2023-10-08T10:32:36;4.65;;;3.28;;
9248;SDS011;4660;41.768;26.198;2023-10-08T10:35:02;6.90;;;3.17;;
9248;SDS011;4660;41.768;26.198;2023-10-08T10:37:29;5.28;;;3.58;;
9248;SDS011;4660;41.768;26.198;2023-10-08T10:40:06;4.78;;;3.10;;
9248;SDS011;4660;41.768;26.198;2023-10-08T10:42:37;10.05;;;3.17;;
9248;SDS011;4660;41.768;26.198;2023-10-08T10:45:16;5.25;;;3.53;;
9248;SDS011;4660;41.768;26.198;2023-10-08T10:48:04;6.70;;;3.10;;
9248;SDS011;4660;41.768;26.198;2023-10-08T10:50:45;5.88;;;3.65;;
9248;SDS011;4660;41.768;26.198;2023-10-08T10:53:33;7.60;;;3.55;;
9248;SDS011;4660;41.768;26.198;2023-10-08T10:56:11;8.68;;;3.10;;
9248;SDS011;4660;41.768;26.198;2023-10-08T10:58:45;6.60;;;3.75;;
9248;SDS011;4660;41.768;26.198;2023-10-08T11:01:12;6.47;;;3.65;;
9248;SDS011;4660;41.768;26.198;2023-10-08T11:03:52;9.27;;;3.60;;
9248;SDS011;4660;41.768;26.198;2023-10-08T11:06:21;5.63;;;3.40;;
9248;SDS011;4660;41.768;26.198;2023-10-08T11:08:51;5.97;;;3.55;;
9248;SDS011;4660;41.768;26.198;2023-10-08T11:11:18;6.00;;;3.40;;
9248;SDS011;4660;41.768;26.198;2023-10-08T11:13:44;6.57;;;3.53;;
9248;SDS011;4660;41.768;26.198;2023-10-08T11:16:17;6.18;;;3.83;;
9248;SDS011;4660;41.768;26.198;2023-10-08T11:18:45;8.93;;;3.45;;
9248;SDS011;4660;41.768;26.198;2023-10-08T11:21:22;7.63;;;3.78;;
9248;SDS011;4660;41.768;26.198;2023-10-08T11:23:49;6.57;;;3.60;;
9248;SDS011;4660;41.768;26.198;2023-10-08T11:26:23;5.28;;;3.13;;
9248;SDS011;4660;41.768;26.198;2023-10-08T11:29:00;7.60;;;3.45;;
9248;SDS011;4660;41.768;26.198;2023-10-08T11:31:28;4.82;;;3.17;;
9248;SDS011;4660;41.768;26.198;2023-10-08T11:33:58;4.15;;;3.33;;
9248;SDS011;4660;41.768;26.198;2023-10-08T11:36:33;6.15;;;3.05;;
9248;SDS011;4660;41.768;26.198;2023-10-08T11:39:14;4.82;;;3.22;;
9248;SDS011;4660;41.768;26.198;2023-10-08T11:41:59;4.72;;;3.20;;
9248;SDS011;4660;41.768;26.198;2023-10-08T11:44:47;5.43;;;3.20;;
9248;SDS011;4660;41.768;26.198;2023-10-08T11:47:13;7.20;;;3.72;;
9248;SDS011;4660;41.768;26.198;2023-10-08T11:49:46;6.43;;;3.80;;
9248;SDS011;4660;41.768;26.198;2023-10-08T11:52:34;6.85;;;3.33;;
9248;SDS011;4660;41.768;26.198;2023-10-08T11:55:01;4.60;;;2.95;;
9248;SDS011;4660;41.768;26.198;2023-10-08T11:57:27;9.32;;;3.60;;
9248;SDS011;4660;41.768;26.198;2023-10-08T11:59:52;8.85;;;3.65;;
9248;SDS011;4660;41.768;26.198;2023-10-08T12:02:19;6.65;;;3.33;;
9248;SDS011;4660;41.768;26.198;2023-10-08T12:04:46;5.78;;;3.10;;
9248;SDS011;4660;41.768;26.198;2023-10-08T12:07:12;6.07;;;3.13;;
9248;SDS011;4660;41.768;26.198;2023-10-08T12:09:42;9.23;;;3.10;;
9248;SDS011;4660;41.768;26.198;2023-10-08T12:12:08;6.18;;;3.17;;
9248;SDS011;4660;41.768;26.198;2023-10-08T12:14:35;5.22;;;3.15;;
9248;SDS011;4660;41.768;26.198;2023-10-08T12:17:03;7.65;;;3.28;;
9248;SDS011;4660;41.768;26.198;2023-10-08T12:19:36;6.40;;;3.10;;
9248;SDS011;4660;41.768;26.198;2023-10-08T12:22:05;5.20;;;3.38;;
9248;SDS011;4660;41.768;26.198;2023-10-08T12:24:32;7.57;;;2.75;;
9248;SDS011;4660;41.768;26.198;2023-10-08T12:26:58;7.45;;;2.97;;
9248;SDS011;4660;41.768;26.198;2023-10-08T12:29:24;5.88;;;3.63;;
9248;SDS011;4660;41.768;26.198;2023-10-08T12:31:51;8.85;;;3.55;;
9248;SDS011;4660;41.768;26.198;2023-10-08T12:34:18;5.00;;;3.20;;
9248;SDS011;4660;41.768;26.198;2023-10-08T12:36:44;6.95;;;3.40;;
9248;SDS011;4660;41.768;26.198;2023-10-08T12:39:11;5.68;;;3.45;;
9248;SDS011;4660;41.768;26.198;2023-10-08T12:41:41;4.95;;;3.42;;
9248;SDS011;4660;41.768;26.198;2023-10-08T12:44:09;7.78;;;3.40;;
9248;SDS011;4660;41.768;26.198;2023-10-08T12:46:35;4.35;;;2.97;;
9248;SDS011;4660;41.768;26.198;2023-10-08T12:49:01;5.00;;;3.20;;
9248;SDS011;4660;41.768;26.198;2023-10-08T12:51:28;11.25;;;3.22;;
9248;SDS011;4660;41.768;26.198;2023-10-08T12:53:58;7.03;;;3.20;;
9248;SDS011;4660;41.768;26.198;2023-10-08T12:56:28;4.68;;;2.88;;
9248;SDS011;4660;41.768;26.198;2023-10-08T12:59:19;6.88;;;3.47;;
9248;SDS011;4660;41.768;26.198;2023-10-08T13:01:46;5.38;;;3.40;;
9248;SDS011;4660;41.768;26.198;2023-10-08T13:04:20;10.90;;;3.67;;
9248;SDS011;4660;41.768;26.198;2023-10-08T13:06:53;5.50;;;3.13;;
9248;SDS011;4660;41.768;26.198;2023-10-08T13:09:26;9.38;;;2.90;;
9248;SDS011;4660;41.768;26.198;2023-10-08T13:11:51;5.90;;;3.00;;
9248;SDS011;4660;41.768;26.198;2023-10-08T13:14:17;9.00;;;3.30;;
9248;SDS011;4660;41.768;26.198;2023-10-08T13:16:43;5.40;;;3.13;;
9248;SDS011;4660;41.768;26.198;2023-10-08T13:19:10;5.50;;;3.00;;
9248;SDS011;4660;41.768;26.198;2023-10-08T13:21:36;5.93;;;3.08;;
9248;SDS011;4660;41.768;26.198;2023-10-08T13:24:02;9.75;;;3.53;;
9248;SDS011;4660;41.768;26.198;2023-10-08T13:26:30;7.47;;;3.40;;
9248;SDS011;4660;41.768;26.198;2023-10-08T13:28:59;6.60;;;3.60;;
9248;SDS011;4660;41.768;26.198;2023-10-08T13:31:26;6.45;;;2.80;;
9248;SDS011;4660;41.768;26.198;2023-10-08T13:33:52;5.38;;;2.85;;
9248;SDS011;4660;41.768;26.198;2023-10-08T13:36:21;6.80;;;2.70;;
9248;SDS011;4660;41.768;26.198;2023-10-08T13:38:49;7.28;;;3.38;;
9248;SDS011;4660;41.768;26.198;2023-10-08T13:41:14;8.30;;;3.22;;
9248;SDS011;4660;41.768;26.198;2023-10-08T13:43:41;7.05;;;3.53;;
9248;SDS011;4660;41.768;26.198;2023-10-08T13:46:10;10.45;;;3.25;;
9248;SDS011;4660;41.768;26.198;2023-10-08T13:48:43;9.02;;;3.30;;
9248;SDS011;4660;41.768;26.198;2023-10-08T13:51:13;4.38;;;2.83;;
9248;SDS011;4660;41.768;26.198;2023-10-08T13:53:47;5.60;;;2.90;;
9248;SDS011;4660;41.768;26.198;2023-10-08T13:56:17;5.03;;;3.15;;
9248;SDS011;4660;41.768;26.198;2023-10-08T13:58:44;5.25;;;3.30;;
9248;SDS011;4660;41.768;26.198;2023-10-08T14:01:14;5.07;;;3.03;;
9248;SDS011;4660;41.768;26.198;2023-10-08T14:03:49;10.50;;;3.45;;
9248;SDS011;4660;41.768;26.198;2023-10-08T14:06:19;8.68;;;3.45;;
9248;SDS011;4660;41.768;26.198;2023-10-08T14:08:45;7.13;;;3.03;;
9248;SDS011;4660;41.768;26.198;2023-10-08T14:11:17;8.25;;;2.72;;
9248;SDS011;4660;41.768;26.198;2023-10-08T14:13:43;8.85;;;3.00;;
9248;SDS011;4660;41.768;26.198;2023-10-08T14:16:09;6.60;;;2.72;;
9248;SDS011;4660;41.768;26.198;2023-10-08T14:18:36;5.40;;;2.92;;
9248;SDS011;4660;41.768;26.198;2023-10-08T14:21:08;6.30;;;2.70;;
9248;SDS011;4660;41.768;26.198;2023-10-08T14:23:37;7.57;;;2.70;;
9248;SDS011;4660;41.768;26.198;2023-10-08T14:26:07;4.70;;;3.10;;
9248;SDS011;4660;41.768;26.198;2023-10-08T14:28:34;8.73;;;3.00;;
9248;SDS011;4660;41.768;26.198;2023-10-08T14:31:08;6.68;;;3.17;;
9248;SDS011;4660;41.768;26.198;2023-10-08T14:33:40;5.65;;;2.83;;
9248;SDS011;4660;41.768;26.198;2023-10-08T14:36:09;6.28;;;2.90;;
9248;SDS011;4660;41.768;26.198;2023-10-08T14:38:53;9.55;;;2.50;;
9248;SDS011;4660;41.768;26.198;2023-10-08T14:41:37;8.20;;;3.35;;
9248;SDS011;4660;41.768;26.198;2023-10-08T14:44:21;7.68;;;3.10;;
9248;SDS011;4660;41.768;26.198;2023-10-08T14:46:48;8.30;;;3.08;;
9248;SDS011;4660;41.768;26.198;2023-10-08T14:49:15;12.35;;;3.00;;
9248;SDS011;4660;41.768;26.198;2023-10-08T14:51:41;7.13;;;3.08;;
9248;SDS011;4660;41.768;26.198;2023-10-08T14:54:08;11.02;;;3.03;;
9248;SDS011;4660;41.768;26.198;2023-10-08T14:56:37;5.93;;;3.55;;
9248;SDS011;4660;41.768;26.198;2023-10-08T14:59:04;11.45;;;3.30;;
9248;SDS011;4660;41.768;26.198;2023-10-08T15:01:30;7.20;;;2.88;;
9248;SDS011;4660;41.768;26.198;2023-10-08T15:03:58;7.50;;;3.25;;
9248;SDS011;4660;41.768;26.198;2023-10-08T15:06:29;7.78;;;3.03;;
9248;SDS011;4660;41.768;26.198;2023-10-08T15:08:57;6.57;;;3.30;;
9248;SDS011;4660;41.768;26.198;2023-10-08T15:11:23;11.68;;;3.95;;
9248;SDS011;4660;41.768;26.198;2023-10-08T15:13:50;6.47;;;3.00;;
9248;SDS011;4660;41.768;26.198;2023-10-08T15:16:21;7.00;;;2.90;;
9248;SDS011;4660;41.768;26.198;2023-10-08T15:18:49;14.02;;;3.28;;
9248;SDS011;4660;41.768;26.198;2023-10-08T15:21:16;5.35;;;2.85;;